Impacts TAF Board
For situational awareness. Not to be used for flight planning purposes.
IDs:

KBWI - Baltimore-Washington, MD, US

Issued at 0522 UTC 25 May 2020
Updated at 0806 UTC 25 May 2020
Potential Impact None Slight Moderate High
Time0754Z 25/09Z 25/10Z 25/11Z 25/12Z 25/13Z 25/14Z 25/15Z 25/16Z 25/17Z 25/18Z 25/19Z 25/20Z 25/21Z>>
Type OBS PRVL PRVL PRVL PRVL PRVL PRVL PRVL PRVL PRVL PRVL PRVL PRVL PRVL
VIS 10 >6 >6 >6 >6 >6 >6 >6 >6 >6 >6 >6 >6 >6
CIG 21 15 15 15 15 15 15 30 30 30 -- -- -- --
Cover OVC OVC OVC OVC OVC OVC OVC BKN BKN BKN SCT SCT SCT SCT
FltCat MVFR MVFR MVFR MVFR MVFR MVFR MVFR MVFR MVFR MVFR VFR VFR VFR VFR
WX -- -- -- -- -- -- -- -- -- -- -- -- -- --
WDir 100 60 60 60 60 60 60 90 90 90 120 120 120 120
WSpd 4 3 3 3 3 3 3 4 4 4 4 4 4 4
WGst -- -- -- -- -- -- -- -- -- -- -- -- -- --
Raw TAF
KBWI 250522Z 2506/2612 11003KT P6SM OVC020
  FM250700 06003KT P6SM OVC015
  FM251500 09004KT P6SM BKN030
  FM251800 12004KT P6SM SCT090


Raw METAR
KBWI 250754Z 10004KT 10SM FEW014 OVC021 17/13 A3018 RMK AO2 SLP220 T01670133
KBWI 250654Z 12003KT 10SM FEW016 OVC023 17/13 A3018 RMK AO2 SLP220 T01670133
KBWI 250554Z 14005KT 9SM FEW016 OVC023 17/13 A3018 RMK AO2 SLP219 T01670133 10178 20167 58010

METAR Board
Radar Display
Forecast Discussion
For situational awareness. Not to be used for flight planning purposes.